sensor_id;sensor_type;location;lat;lon;timestamp;pressure;altitude;pressure_sealevel;temperature;humidity
76611;BME280;65503;48.534;9.062;2023-05-07T00:01:13;96867.88;;;16.26;62.72
76611;BME280;65503;48.534;9.062;2023-05-07T00:03:40;96865.22;;;16.21;63.22
76611;BME280;65503;48.534;9.062;2023-05-07T00:06:07;96873.72;;;16.18;63.15
76611;BME280;65503;48.534;9.062;2023-05-07T00:08:33;96862.59;;;16.11;63.67
76611;BME280;65503;48.534;9.062;2023-05-07T00:11:00;96856.19;;;16.07;63.30
76611;BME280;65503;48.534;9.062;2023-05-07T00:13:26;96863.13;;;15.98;63.69
76611;BME280;65503;48.534;9.062;2023-05-07T00:15:53;96859.91;;;15.96;63.94
76611;BME280;65503;48.534;9.062;2023-05-07T00:18:20;96857.81;;;15.98;64.57
76611;BME280;65503;48.534;9.062;2023-05-07T00:20:48;96848.00;;;15.93;64.55
76611;BME280;65503;48.534;9.062;2023-05-07T00:23:15;96859.91;;;15.96;64.16
76611;BME280;65503;48.534;9.062;2023-05-07T00:25:42;96850.66;;;15.93;64.15
76611;BME280;65503;48.534;9.062;2023-05-07T00:28:08;96854.91;;;15.99;63.95
76611;BME280;65503;48.534;9.062;2023-05-07T00:30:35;96853.28;;;15.98;64.14
76611;BME280;65503;48.534;9.062;2023-05-07T00:33:01;96855.69;;;16.00;63.90
76611;BME280;65503;48.534;9.062;2023-05-07T00:35:28;96847.19;;;15.98;64.09
76611;BME280;65503;48.534;9.062;2023-05-07T00:37:55;96851.16;;;15.95;63.86
76611;BME280;65503;48.534;9.062;2023-05-07T00:40:22;96852.50;;;15.98;63.73
76611;BME280;65503;48.534;9.062;2023-05-07T00:42:48;96835.53;;;15.89;64.01
76611;BME280;65503;48.534;9.062;2023-05-07T00:45:15;96849.56;;;15.84;64.08
76611;BME280;65503;48.534;9.062;2023-05-07T00:47:43;96845.59;;;15.77;64.94
76611;BME280;65503;48.534;9.062;2023-05-07T00:50:10;96836.84;;;15.71;65.11
76611;BME280;65503;48.534;9.062;2023-05-07T00:52:39;96838.16;;;15.63;65.42
76611;BME280;65503;48.534;9.062;2023-05-07T00:55:06;96832.84;;;15.58;65.77
76611;BME280;65503;48.534;9.062;2023-05-07T00:57:37;96834.16;;;15.56;65.80
76611;BME280;65503;48.534;9.062;2023-05-07T01:00:04;96840.81;;;15.53;65.84
76611;BME280;65503;48.534;9.062;2023-05-07T01:02:31;96834.16;;;15.56;65.79
76611;BME280;65503;48.534;9.062;2023-05-07T01:04:58;96837.38;;;15.53;65.81
76611;BME280;65503;48.534;9.062;2023-05-07T01:07:27;96837.63;;;15.56;65.38
76611;BME280;65503;48.534;9.062;2023-05-07T01:09:53;96838.16;;;15.53;65.54
76611;BME280;65503;48.534;9.062;2023-05-07T01:12:20;96832.81;;;15.48;65.32
76611;BME280;65503;48.534;9.062;2023-05-07T01:14:47;96835.47;;;15.48;65.10
76611;BME280;65503;48.534;9.062;2023-05-07T01:17:16;96828.56;;;15.42;65.36
76611;BME280;65503;48.534;9.062;2023-05-07T01:19:43;96829.38;;;15.43;65.29
76611;BME280;65503;48.534;9.062;2023-05-07T01:22:10;96828.56;;;15.42;65.50
76611;BME280;65503;48.534;9.062;2023-05-07T01:24:38;96835.97;;;15.40;65.56
76611;BME280;65503;48.534;9.062;2023-05-07T01:27:04;96835.97;;;15.35;65.50
76611;BME280;65503;48.534;9.062;2023-05-07T01:29:31;96842.06;;;15.30;65.91
76611;BME280;65503;48.534;9.062;2023-05-07T01:31:59;96841.28;;;15.30;65.79
76611;BME280;65503;48.534;9.062;2023-05-07T01:34:31;96840.22;;;15.26;65.75
76611;BME280;65503;48.534;9.062;2023-05-07T01:36:59;96844.72;;;15.25;65.90
76611;BME280;65503;48.534;9.062;2023-05-07T01:39:27;96834.34;;;15.19;66.04
76611;BME280;65503;48.534;9.062;2023-05-07T01:41:58;96837.25;;;15.17;66.12
76611;BME280;65503;48.534;9.062;2023-05-07T01:44:25;96835.66;;;15.16;66.38
76611;BME280;65503;48.534;9.062;2023-05-07T01:46:53;96844.41;;;15.12;66.72
76611;BME280;65503;48.534;9.062;2023-05-07T01:49:21;96834.84;;;15.11;66.50
76611;BME280;65503;48.534;9.062;2023-05-07T01:51:47;96837.00;;;15.09;66.42
76611;BME280;65503;48.534;9.062;2023-05-07T01:54:14;96828.25;;;15.08;66.22
76611;BME280;65503;48.534;9.062;2023-05-07T01:56:41;96835.38;;;15.08;66.01
76611;BME280;65503;48.534;9.062;2023-05-07T01:59:08;96831.16;;;15.07;66.37
76611;BME280;65503;48.534;9.062;2023-05-07T02:01:35;96833.78;;;15.02;66.16
76611;BME280;65503;48.534;9.062;2023-05-07T02:04:02;96834.03;;;14.95;66.31
76611;BME280;65503;48.534;9.062;2023-05-07T02:06:28;96830.03;;;14.93;66.21
76611;BME280;65503;48.534;9.062;2023-05-07T02:08:55;96821.56;;;14.91;66.41
76611;BME280;65503;48.534;9.062;2023-05-07T02:11:22;96826.56;;;14.87;66.62
76611;BME280;65503;48.534;9.062;2023-05-07T02:13:48;96822.59;;;14.84;66.47
76611;BME280;65503;48.534;9.062;2023-05-07T02:16:15;96816.22;;;14.80;66.76
76611;BME280;65503;48.534;9.062;2023-05-07T02:18:41;96823.63;;;14.78;67.06
76611;BME280;65503;48.534;9.062;2023-05-07T02:21:08;96825.72;;;14.76;67.38
76611;BME280;65503;48.534;9.062;2023-05-07T02:23:35;96827.06;;;14.74;67.29
76611;BME280;65503;48.534;9.062;2023-05-07T02:26:01;96828.66;;;14.75;67.51
76611;BME280;65503;48.534;9.062;2023-05-07T02:28:28;96833.16;;;14.69;67.72
76611;BME280;65503;48.534;9.062;2023-05-07T02:30:55;96823.59;;;14.63;67.95
76611;BME280;65503;48.534;9.062;2023-05-07T02:33:21;96831.78;;;14.67;67.90
76611;BME280;65503;48.534;9.062;2023-05-07T02:35:48;96842.63;;;14.60;67.91
76611;BME280;65503;48.534;9.062;2023-05-07T02:38:14;96839.41;;;14.58;67.88
76611;BME280;65503;48.534;9.062;2023-05-07T02:40:41;96839.91;;;14.45;68.58
76611;BME280;65503;48.534;9.062;2023-05-07T02:43:07;96847.59;;;14.46;68.79
76611;BME280;65503;48.534;9.062;2023-05-07T02:45:34;96839.66;;;14.46;67.89
76611;BME280;65503;48.534;9.062;2023-05-07T02:48:02;96839.59;;;14.41;68.44
76611;BME280;65503;48.534;9.062;2023-05-07T02:50:29;96842.19;;;14.36;68.60
76611;BME280;65503;48.534;9.062;2023-05-07T02:52:55;96838.53;;;14.37;68.21
76611;BME280;65503;48.534;9.062;2023-05-07T02:55:22;96835.56;;;14.34;68.50
76611;BME280;65503;48.534;9.062;2023-05-07T02:57:48;96831.06;;;14.29;68.56
76611;BME280;65503;48.534;9.062;2023-05-07T03:00:17;96836.56;;;14.23;68.79
76611;BME280;65503;48.534;9.062;2023-05-07T03:02:44;96830.16;;;14.19;68.64
76611;BME280;65503;48.534;9.062;2023-05-07T03:05:11;96839.19;;;14.18;68.56
76611;BME280;65503;48.534;9.062;2023-05-07T03:07:38;96833.59;;;14.14;68.46
76611;BME280;65503;48.534;9.062;2023-05-07T03:10:05;96839.09;;;14.07;68.66
76611;BME280;65503;48.534;9.062;2023-05-07T03:12:32;96830.50;;;13.90;69.37
76611;BME280;65503;48.534;9.062;2023-05-07T03:14:59;96840.34;;;13.95;69.38
76611;BME280;65503;48.534;9.062;2023-05-07T03:17:25;96836.34;;;13.92;69.08
76611;BME280;65503;48.534;9.062;2023-05-07T03:19:52;96840.59;;;13.93;69.31
76611;BME280;65503;48.534;9.062;2023-05-07T03:22:19;96845.66;;;13.95;69.02
76611;BME280;65503;48.534;9.062;2023-05-07T03:24:46;96840.03;;;13.91;69.14
76611;BME280;65503;48.534;9.062;2023-05-07T03:27:12;96833.69;;;13.87;69.30
76611;BME280;65503;48.534;9.062;2023-05-07T03:29:39;96832.88;;;13.87;69.03
76611;BME280;65503;48.534;9.062;2023-05-07T03:32:06;96835.47;;;13.82;69.21
76611;BME280;65503;48.534;9.062;2023-05-07T03:34:32;96825.16;;;13.80;69.44
76611;BME280;65503;48.534;9.062;2023-05-07T03:36:59;96829.41;;;13.81;69.79
76611;BME280;65503;48.534;9.062;2023-05-07T03:39:26;96826.19;;;13.79;69.95
76611;BME280;65503;48.534;9.062;2023-05-07T03:41:53;96821.47;;;13.81;69.60
76611;BME280;65503;48.534;9.062;2023-05-07T03:44:19;96826.78;;;13.86;69.73
76611;BME280;65503;48.534;9.062;2023-05-07T03:46:46;96829.44;;;13.86;69.94
76611;BME280;65503;48.534;9.062;2023-05-07T03:49:13;96836.88;;;13.89;69.98
76611;BME280;65503;48.534;9.062;2023-05-07T03:51:39;96835.75;;;13.85;69.72
76611;BME280;65503;48.534;9.062;2023-05-07T03:54:06;96831.78;;;13.83;69.87
76611;BME280;65503;48.534;9.062;2023-05-07T03:56:32;96836.78;;;13.79;69.68
76611;BME280;65503;48.534;9.062;2023-05-07T03:59:00;96837.28;;;13.76;69.96
76611;BME280;65503;48.534;9.062;2023-05-07T04:01:26;96826.16;;;13.74;69.84
76611;BME280;65503;48.534;9.062;2023-05-07T04:03:53;96833.00;;;13.70;69.92
76611;BME280;65503;48.534;9.062;2023-05-07T04:06:20;96838.78;;;13.67;69.93
76611;BME280;65503;48.534;9.062;2023-05-07T04:08:46;96837.19;;;13.61;70.44
76611;BME280;65503;48.534;9.062;2023-05-07T04:11:13;96843.50;;;13.60;70.65
76611;BME280;65503;48.534;9.062;2023-05-07T04:13:40;96841.38;;;13.62;70.64
76611;BME280;65503;48.534;9.062;2023-05-07T04:16:06;96834.00;;;13.64;70.33
76611;BME280;65503;48.534;9.062;2023-05-07T04:18:33;96839.31;;;13.64;70.27
76611;BME280;65503;48.534;9.062;2023-05-07T04:21:00;96840.38;;;13.68;70.71
76611;BME280;65503;48.534;9.062;2023-05-07T04:23:26;96842.00;;;13.69;70.58
76611;BME280;65503;48.534;9.062;2023-05-07T04:25:53;96845.19;;;13.71;70.53
76611;BME280;65503;48.534;9.062;2023-05-07T04:28:20;96851.84;;;13.79;70.49
76611;BME280;65503;48.534;9.062;2023-05-07T04:30:47;96856.94;;;13.85;70.42
76611;BME280;65503;48.534;9.062;2023-05-07T04:33:14;96850.03;;;13.84;69.84
76611;BME280;65503;48.534;9.062;2023-05-07T04:35:43;96841.38;;;13.89;69.85
76611;BME280;65503;48.534;9.062;2023-05-07T04:38:09;96841.13;;;13.95;69.98
76611;BME280;65503;48.534;9.062;2023-05-07T04:40:36;96844.91;;;14.04;70.18
76611;BME280;65503;48.534;9.062;2023-05-07T04:43:03;96849.72;;;14.13;70.18
76611;BME280;65503;48.534;9.062;2023-05-07T04:45:29;96847.16;;;14.23;69.91
76611;BME280;65503;48.534;9.062;2023-05-07T04:47:56;96850.91;;;14.32;69.82
76611;BME280;65503;48.534;9.062;2023-05-07T04:50:23;96857.22;;;14.63;69.65
76611;BME280;65503;48.534;9.062;2023-05-07T04:52:50;96857.66;;;15.12;68.49
76611;BME280;65503;48.534;9.062;2023-05-07T04:55:17;96856.22;;;15.92;65.79
76611;BME280;65503;48.534;9.062;2023-05-07T04:57:43;96853.75;;;16.56;63.06
76611;BME280;65503;48.534;9.062;2023-05-07T05:00:10;96870.50;;;17.21;60.00
76611;BME280;65503;48.534;9.062;2023-05-07T05:02:37;96878.53;;;17.70;58.25
76611;BME280;65503;48.534;9.062;2023-05-07T05:05:04;96885.09;;;18.11;57.27
76611;BME280;65503;48.534;9.062;2023-05-07T05:07:30;96883.66;;;18.24;56.85
76611;BME280;65503;48.534;9.062;2023-05-07T05:09:58;96885.41;;;18.39;55.64
76611;BME280;65503;48.534;9.062;2023-05-07T05:12:24;96886.31;;;18.53;54.69
76611;BME280;65503;48.534;9.062;2023-05-07T05:14:51;96894.78;;;18.65;54.29
76611;BME280;65503;48.534;9.062;2023-05-07T05:17:17;96900.25;;;18.79;54.02
76611;BME280;65503;48.534;9.062;2023-05-07T05:19:44;96904.66;;;19.12;53.33
76611;BME280;65503;48.534;9.062;2023-05-07T05:22:11;96906.63;;;19.44;52.10
76611;BME280;65503;48.534;9.062;2023-05-07T05:24:37;96901.09;;;19.97;50.66
76611;BME280;65503;48.534;9.062;2023-05-07T05:27:04;96900.81;;;20.49;48.83
76611;BME280;65503;48.534;9.062;2023-05-07T05:29:31;96904.59;;;20.76;48.47
76611;BME280;65503;48.534;9.062;2023-05-07T05:31:58;96915.34;;;21.17;47.47
76611;BME280;65503;48.534;9.062;2023-05-07T05:34:24;96914.91;;;21.64;45.88
76611;BME280;65503;48.534;9.062;2023-05-07T05:36:51;96908.03;;;22.08;45.04
76611;BME280;65503;48.534;9.062;2023-05-07T05:39:17;96912.00;;;22.33;43.99
76611;BME280;65503;48.534;9.062;2023-05-07T05:41:44;96913.22;;;22.27;44.04
76611;BME280;65503;48.534;9.062;2023-05-07T05:44:10;96903.47;;;22.08;44.41
76611;BME280;65503;48.534;9.062;2023-05-07T05:46:37;96910.63;;;21.99;44.85
76611;BME280;65503;48.534;9.062;2023-05-07T05:49:03;96910.41;;;21.60;45.63
76611;BME280;65503;48.534;9.062;2023-05-07T05:51:30;96915.88;;;21.55;45.60
76611;BME280;65503;48.534;9.062;2023-05-07T05:53:57;96913.63;;;21.84;45.10
76611;BME280;65503;48.534;9.062;2023-05-07T05:56:23;96916.06;;;21.94;44.91
76611;BME280;65503;48.534;9.062;2023-05-07T05:58:50;96914.78;;;22.05;44.39
76611;BME280;65503;48.534;9.062;2023-05-07T06:01:17;96915.31;;;22.16;44.24
76611;BME280;65503;48.534;9.062;2023-05-07T06:03:44;96910.88;;;22.11;43.90
76611;BME280;65503;48.534;9.062;2023-05-07T06:06:10;96912.34;;;22.17;44.33
76611;BME280;65503;48.534;9.062;2023-05-07T06:08:37;96905.34;;;21.72;44.82
76611;BME280;65503;48.534;9.062;2023-05-07T06:11:03;96911.94;;;20.70;47.09
76611;BME280;65503;48.534;9.062;2023-05-07T06:13:30;96909.38;;;20.79;47.37
76611;BME280;65503;48.534;9.062;2023-05-07T06:15:56;96922.25;;;21.04;47.99
76611;BME280;65503;48.534;9.062;2023-05-07T06:18:23;96910.56;;;21.41;46.33
76611;BME280;65503;48.534;9.062;2023-05-07T06:20:49;96919.16;;;22.01;45.91
76611;BME280;65503;48.534;9.062;2023-05-07T06:23:16;96921.09;;;22.54;43.23
76611;BME280;65503;48.534;9.062;2023-05-07T06:25:48;96917.53;;;22.14;44.57
76611;BME280;65503;48.534;9.062;2023-05-07T06:28:15;96927.09;;;22.29;44.17
76611;BME280;65503;48.534;9.062;2023-05-07T06:30:42;96920.34;;;22.62;42.34
76611;BME280;65503;48.534;9.062;2023-05-07T06:33:09;96929.25;;;22.71;42.02
76611;BME280;65503;48.534;9.062;2023-05-07T06:35:36;96931.09;;;22.40;43.16
76611;BME280;65503;48.534;9.062;2023-05-07T06:38:02;96926.13;;;22.02;43.45
76611;BME280;65503;48.534;9.062;2023-05-07T06:40:29;96920.25;;;22.00;43.87
76611;BME280;65503;48.534;9.062;2023-05-07T06:42:55;96935.19;;;22.37;43.45
76611;BME280;65503;48.534;9.062;2023-05-07T06:45:22;96932.84;;;22.44;42.61
76611;BME280;65503;48.534;9.062;2023-05-07T06:47:49;96937.56;;;22.16;44.64
76611;BME280;65503;48.534;9.062;2023-05-07T06:50:16;96933.66;;;22.22;45.59
76611;BME280;65503;48.534;9.062;2023-05-07T06:52:43;96939.28;;;22.35;44.80
76611;BME280;65503;48.534;9.062;2023-05-07T06:55:09;96940.84;;;22.36;45.33
76611;BME280;65503;48.534;9.062;2023-05-07T06:57:37;96930.84;;;22.27;44.99
76611;BME280;65503;48.534;9.062;2023-05-07T07:00:05;96927.84;;;22.20;45.50
76611;BME280;65503;48.534;9.062;2023-05-07T07:02:36;96918.66;;;22.21;45.28
76611;BME280;65503;48.534;9.062;2023-05-07T07:05:03;96926.63;;;22.27;45.80
76611;BME280;65503;48.534;9.062;2023-05-07T07:07:30;96926.56;;;22.71;45.25
76611;BME280;65503;48.534;9.062;2023-05-07T07:09:56;96933.13;;;22.87;44.45
76611;BME280;65503;48.534;9.062;2023-05-07T07:12:23;96933.34;;;22.99;43.34
76611;BME280;65503;48.534;9.062;2023-05-07T07:14:51;96935.31;;;23.25;43.09
76611;BME280;65503;48.534;9.062;2023-05-07T07:17:17;96932.91;;;23.54;41.96
76611;BME280;65503;48.534;9.062;2023-05-07T07:19:44;96930.06;;;23.51;42.14
76611;BME280;65503;48.534;9.062;2023-05-07T07:22:11;96933.88;;;23.75;41.67
76611;BME280;65503;48.534;9.062;2023-05-07T07:24:37;96937.38;;;24.53;39.97
76611;BME280;65503;48.534;9.062;2023-05-07T07:27:04;96929.63;;;25.36;38.52
76611;BME280;65503;48.534;9.062;2023-05-07T07:29:31;96927.66;;;26.16;37.96
76611;BME280;65503;48.534;9.062;2023-05-07T07:31:58;96933.19;;;26.41;37.05
76611;BME280;65503;48.534;9.062;2023-05-07T07:34:24;96933.31;;;26.44;36.35
76611;BME280;65503;48.534;9.062;2023-05-07T07:36:51;96938.47;;;26.16;37.07
76611;BME280;65503;48.534;9.062;2023-05-07T07:39:17;96936.75;;;25.70;37.33
76611;BME280;65503;48.534;9.062;2023-05-07T07:41:44;96930.88;;;25.09;39.07
76611;BME280;65503;48.534;9.062;2023-05-07T07:44:10;96925.31;;;24.59;40.06
76611;BME280;65503;48.534;9.062;2023-05-07T07:46:41;96927.91;;;24.30;40.80
76611;BME280;65503;48.534;9.062;2023-05-07T07:49:08;96930.91;;;24.03;41.62
76611;BME280;65503;48.534;9.062;2023-05-07T07:51:34;96934.28;;;23.43;42.11
76611;BME280;65503;48.534;9.062;2023-05-07T07:54:01;96932.22;;;23.40;43.21
76611;BME280;65503;48.534;9.062;2023-05-07T07:56:29;96935.75;;;23.49;43.00
76611;BME280;65503;48.534;9.062;2023-05-07T07:58:55;96937.66;;;23.57;41.60
76611;BME280;65503;48.534;9.062;2023-05-07T08:01:21;96930.78;;;23.34;42.66
76611;BME280;65503;48.534;9.062;2023-05-07T08:03:48;96925.81;;;23.19;42.87
76611;BME280;65503;48.534;9.062;2023-05-07T08:06:15;96934.16;;;23.00;43.46
76611;BME280;65503;48.534;9.062;2023-05-07T08:08:41;96934.59;;;22.93;44.21
76611;BME280;65503;48.534;9.062;2023-05-07T08:11:08;96934.66;;;22.80;45.41
76611;BME280;65503;48.534;9.062;2023-05-07T08:13:34;96930.09;;;22.80;45.26
76611;BME280;65503;48.534;9.062;2023-05-07T08:16:01;96935.19;;;22.90;46.05
76611;BME280;65503;48.534;9.062;2023-05-07T08:18:28;96933.47;;;23.34;45.08
76611;BME280;65503;48.534;9.062;2023-05-07T08:20:55;96935.78;;;23.66;43.94
76611;BME280;65503;48.534;9.062;2023-05-07T08:23:22;96934.81;;;24.65;42.42
76611;BME280;65503;48.534;9.062;2023-05-07T08:25:49;96932.66;;;25.64;40.24
76611;BME280;65503;48.534;9.062;2023-05-07T08:28:15;96935.38;;;26.26;38.96
76611;BME280;65503;48.534;9.062;2023-05-07T08:30:42;96942.59;;;26.88;37.56
76611;BME280;65503;48.534;9.062;2023-05-07T08:33:08;96940.81;;;27.41;37.62
76611;BME280;65503;48.534;9.062;2023-05-07T08:35:35;96942.13;;;27.95;36.21
76611;BME280;65503;48.534;9.062;2023-05-07T08:38:02;96939.97;;;28.57;35.69
76611;BME280;65503;48.534;9.062;2023-05-07T08:40:28;96936.22;;;29.05;34.51
76611;BME280;65503;48.534;9.062;2023-05-07T08:42:55;96939.47;;;29.26;33.25
76611;BME280;65503;48.534;9.062;2023-05-07T08:45:23;96936.81;;;29.45;32.87
76611;BME280;65503;48.534;9.062;2023-05-07T08:47:53;96944.50;;;28.81;33.42
76611;BME280;65503;48.534;9.062;2023-05-07T08:50:22;96943.00;;;28.83;34.30
76611;BME280;65503;48.534;9.062;2023-05-07T08:52:48;96945.41;;;29.16;33.45
76611;BME280;65503;48.534;9.062;2023-05-07T08:55:16;96939.97;;;29.47;32.74
76611;BME280;65503;48.534;9.062;2023-05-07T08:57:43;96943.44;;;29.64;31.83
76611;BME280;65503;48.534;9.062;2023-05-07T09:00:10;96946.31;;;29.71;31.59
76611;BME280;65503;48.534;9.062;2023-05-07T09:02:37;96941.03;;;29.93;31.76
76611;BME280;65503;48.534;9.062;2023-05-07T09:05:04;96943.84;;;30.55;31.81
76611;BME280;65503;48.534;9.062;2023-05-07T09:07:31;96943.22;;;31.03;30.48
76611;BME280;65503;48.534;9.062;2023-05-07T09:09:57;96938.22;;;31.32;29.81
76611;BME280;65503;48.534;9.062;2023-05-07T09:12:24;96938.53;;;31.53;28.59
76611;BME280;65503;48.534;9.062;2023-05-07T09:14:51;96944.31;;;31.74;28.84
76611;BME280;65503;48.534;9.062;2023-05-07T09:17:17;96925.97;;;31.45;29.40
76611;BME280;65503;48.534;9.062;2023-05-07T09:19:44;96931.84;;;31.47;29.37
76611;BME280;65503;48.534;9.062;2023-05-07T09:22:14;96922.06;;;31.42;28.72
76611;BME280;65503;48.534;9.062;2023-05-07T09:24:47;96921.16;;;31.08;29.84
76611;BME280;65503;48.534;9.062;2023-05-07T09:27:13;96920.00;;;31.09;29.90
76611;BME280;65503;48.534;9.062;2023-05-07T09:29:40;96918.25;;;30.17;30.51
76611;BME280;65503;48.534;9.062;2023-05-07T09:32:08;96917.81;;;30.34;31.02
76611;BME280;65503;48.534;9.062;2023-05-07T09:34:35;96922.22;;;30.43;30.56
76611;BME280;65503;48.534;9.062;2023-05-07T09:37:03;96916.09;;;30.26;30.63
76611;BME280;65503;48.534;9.062;2023-05-07T09:39:46;96913.38;;;30.46;30.68
76611;BME280;65503;48.534;9.062;2023-05-07T09:42:13;96912.59;;;30.45;30.16
76611;BME280;65503;48.534;9.062;2023-05-07T09:44:46;96909.09;;;30.45;30.80
76611;BME280;65503;48.534;9.062;2023-05-07T09:47:18;96914.09;;;30.43;31.17
76611;BME280;65503;48.534;9.062;2023-05-07T09:49:47;96914.03;;;30.39;30.32
76611;BME280;65503;48.534;9.062;2023-05-07T09:52:14;96915.31;;;30.26;31.15
76611;BME280;65503;48.534;9.062;2023-05-07T09:54:41;96905.41;;;29.95;30.89
76611;BME280;65503;48.534;9.062;2023-05-07T09:57:13;96909.53;;;29.73;32.71
76611;BME280;65503;48.534;9.062;2023-05-07T09:59:42;96908.78;;;29.73;32.84
76611;BME280;65503;48.534;9.062;2023-05-07T10:02:09;96897.03;;;29.69;32.21
76611;BME280;65503;48.534;9.062;2023-05-07T10:04:36;96904.03;;;30.05;30.81
76611;BME280;65503;48.534;9.062;2023-05-07T10:07:04;96897.06;;;29.88;32.00
76611;BME280;65503;48.534;9.062;2023-05-07T10:09:31;96898.31;;;29.90;31.72
76611;BME280;65503;48.534;9.062;2023-05-07T10:11:59;96885.56;;;29.75;31.65
76611;BME280;65503;48.534;9.062;2023-05-07T10:14:27;96889.91;;;29.61;31.87
76611;BME280;65503;48.534;9.062;2023-05-07T10:16:54;96879.69;;;29.23;32.00
76611;BME280;65503;48.534;9.062;2023-05-07T10:19:21;96872.44;;;29.42;32.37
76611;BME280;65503;48.534;9.062;2023-05-07T10:21:56;96878.16;;;29.56;33.82
76611;BME280;65503;48.534;9.062;2023-05-07T10:24:32;96869.66;;;29.23;32.94
76611;BME280;65503;48.534;9.062;2023-05-07T10:27:01;96869.88;;;28.99;32.50
76611;BME280;65503;48.534;9.062;2023-05-07T10:29:58;96866.72;;;28.97;33.26
76611;BME280;65503;48.534;9.062;2023-05-07T10:32:39;96861.44;;;28.72;34.11
76611;BME280;65503;48.534;9.062;2023-05-07T10:35:12;96866.47;;;28.27;34.29
76611;BME280;65503;48.534;9.062;2023-05-07T10:37:41;96854.66;;;28.79;34.31
76611;BME280;65503;48.534;9.062;2023-05-07T10:40:09;96859.72;;;28.96;32.94
76611;BME280;65503;48.534;9.062;2023-05-07T10:42:36;96864.25;;;29.07;31.51
76611;BME280;65503;48.534;9.062;2023-05-07T10:45:13;96861.97;;;29.25;32.15
76611;BME280;65503;48.534;9.062;2023-05-07T10:48:12;96859.63;;;29.58;31.63
76611;BME280;65503;48.534;9.062;2023-05-07T10:50:44;96860.91;;;29.65;31.34
76611;BME280;65503;48.534;9.062;2023-05-07T10:55:50;96849.94;;;28.75;30.08
76611;BME280;65503;48.534;9.062;2023-05-07T10:58:27;96846.50;;;28.94;30.81
76611;BME280;65503;48.534;9.062;2023-05-07T11:01:01;96843.09;;;29.13;31.08
76611;BME280;65503;48.534;9.062;2023-05-07T11:03:28;96836.91;;;29.47;30.61
76611;BME280;65503;48.534;9.062;2023-05-07T11:06:15;96844.28;;;29.66;30.27
76611;BME280;65503;48.534;9.062;2023-05-07T11:08:55;96849.16;;;29.76;30.07
76611;BME280;65503;48.534;9.062;2023-05-07T11:11:44;96842.41;;;28.85;30.81
76611;BME280;65503;48.534;9.062;2023-05-07T11:14:14;96844.59;;;29.45;31.54
76611;BME280;65503;48.534;9.062;2023-05-07T11:17:03;96842.97;;;29.95;29.86
76611;BME280;65503;48.534;9.062;2023-05-07T11:19:55;96848.50;;;29.83;30.51
76611;BME280;65503;48.534;9.062;2023-05-07T11:24:59;96844.69;;;28.83;29.16
76611;BME280;65503;48.534;9.062;2023-05-07T11:27:26;96839.13;;;28.75;29.78
76611;BME280;65503;48.534;9.062;2023-05-07T11:29:53;96839.28;;;27.95;30.78
76611;BME280;65503;48.534;9.062;2023-05-07T11:34:58;96824.56;;;28.09;30.84
76611;BME280;65503;48.534;9.062;2023-05-07T11:37:26;96832.09;;;27.87;32.22
76611;BME280;65503;48.534;9.062;2023-05-07T11:42:32;96836.72;;;27.87;32.64
76611;BME280;65503;48.534;9.062;2023-05-07T11:45:00;96828.28;;;27.88;32.81
76611;BME280;65503;48.534;9.062;2023-05-07T11:47:30;96829.44;;;27.75;32.94
76611;BME280;65503;48.534;9.062;2023-05-07T11:50:02;96828.56;;;27.71;33.35
76611;BME280;65503;48.534;9.062;2023-05-07T11:52:29;96830.88;;;27.45;33.19
76611;BME280;65503;48.534;9.062;2023-05-07T11:54:57;96821.69;;;27.22;34.39
76611;BME280;65503;48.534;9.062;2023-05-07T11:57:24;96832.72;;;27.04;34.92
76611;BME280;65503;48.534;9.062;2023-05-07T11:59:58;96825.25;;;26.77;35.43
76611;BME280;65503;48.534;9.062;2023-05-07T12:02:25;96825.81;;;26.58;35.99
76611;BME280;65503;48.534;9.062;2023-05-07T12:04:53;96823.75;;;26.43;35.78
76611;BME280;65503;48.534;9.062;2023-05-07T12:07:20;96827.59;;;26.42;36.20
76611;BME280;65503;48.534;9.062;2023-05-07T12:09:47;96839.63;;;26.12;37.37
76611;BME280;65503;48.534;9.062;2023-05-07T12:12:14;96831.28;;;25.72;37.53
76611;BME280;65503;48.534;9.062;2023-05-07T12:14:45;96834.97;;;25.67;37.96
76611;BME280;65503;48.534;9.062;2023-05-07T12:17:13;96837.28;;;25.27;37.56
76611;BME280;65503;48.534;9.062;2023-05-07T12:19:43;96850.78;;;24.98;37.94
76611;BME280;65503;48.534;9.062;2023-05-07T12:22:10;96851.19;;;24.70;39.19
76611;BME280;65503;48.534;9.062;2023-05-07T12:27:30;96861.59;;;24.81;39.88
76611;BME280;65503;48.534;9.062;2023-05-07T12:29:57;96870.78;;;24.80;39.78
76611;BME280;65503;48.534;9.062;2023-05-07T12:32:25;96875.88;;;24.73;39.83
76611;BME280;65503;48.534;9.062;2023-05-07T12:34:52;96887.00;;;24.62;42.30
76611;BME280;65503;48.534;9.062;2023-05-07T12:37:26;96899.53;;;24.50;42.42
76611;BME280;65503;48.534;9.062;2023-05-07T12:40:08;96900.34;;;23.99;42.99
76611;BME280;65503;48.534;9.062;2023-05-07T12:42:37;96904.44;;;23.53;43.31
76611;BME280;65503;48.534;9.062;2023-05-07T12:45:11;96908.00;;;23.23;44.44
76611;BME280;65503;48.534;9.062;2023-05-07T12:47:38;96917.84;;;22.96;44.96
76611;BME280;65503;48.534;9.062;2023-05-07T12:50:06;96916.31;;;22.73;45.91
76611;BME280;65503;48.534;9.062;2023-05-07T12:52:34;96911.59;;;22.48;47.00
76611;BME280;65503;48.534;9.062;2023-05-07T12:55:05;96917.69;;;22.17;48.62
76611;BME280;65503;48.534;9.062;2023-05-07T12:57:40;96925.94;;;21.85;50.50
76611;BME280;65503;48.534;9.062;2023-05-07T13:00:08;96936.56;;;21.27;53.99
76611;BME280;65503;48.534;9.062;2023-05-07T13:02:39;96948.06;;;20.68;53.81
76611;BME280;65503;48.534;9.062;2023-05-07T13:05:06;96961.09;;;19.86;57.46
76611;BME280;65503;48.534;9.062;2023-05-07T13:07:33;96970.66;;;19.02;60.15
76611;BME280;65503;48.534;9.062;2023-05-07T13:09:59;96982.78;;;17.82;64.59
76611;BME280;65503;48.534;9.062;2023-05-07T13:12:26;97000.28;;;17.29;70.00
76611;BME280;65503;48.534;9.062;2023-05-07T13:14:52;97001.69;;;16.86;72.96
76611;BME280;65503;48.534;9.062;2023-05-07T13:17:19;96998.56;;;16.74;76.19